Time;durP1;ratioP1;P1;durP2;ratioP2;P2;SDS_P1;SDS_P2;PMS_P1;PMS_P2;Temp;Humidity;BMP_temperature;BMP_pressure;BME280_temperature;BME280_humidity;BME280_pressure;Samples;Min_cycle;Max_cycle;Signal;HPM_P1;HPM_P2
2021/10/17 00:01:27;;;;;;;44.80;20.55;;;;;;;7.41;82.99;101960.09;5022756;28;20034;-67
2021/10/17 00:03:53;;;;;;;39.95;21.30;;;;;;;7.50;83.72;101960.44;5020334;28;20033;-67
2021/10/17 00:06:18;;;;;;;42.85;22.00;;;;;;;7.53;84.06;101955.28;5012427;28;20036;-67
2021/10/17 00:08:43;;;;;;;43.50;23.35;;;;;;;7.48;82.85;101952.50;5012485;28;20038;-65
2021/10/17 00:11:09;;;;;;;40.53;22.83;;;;;;;7.38;82.37;101949.47;5022155;28;20022;-68
2021/10/17 00:13:35;;;;;;;46.47;24.05;;;;;;;7.32;81.79;101948.44;5022895;28;20033;-69
2021/10/17 00:16:00;;;;;;;45.95;24.25;;;;;;;7.31;81.21;101949.25;5012456;28;20049;-67
2021/10/17 00:18:26;;;;;;;43.30;22.83;;;;;;;7.32;81.92;101937.00;5012712;28;20034;-68
2021/10/17 00:20:51;;;;;;;42.42;22.38;;;;;;;7.31;80.92;101945.72;5023356;28;20067;-67
2021/10/17 00:23:17;;;;;;;45.17;23.83;;;;;;;7.25;81.84;101943.78;5021008;28;20103;-67
2021/10/17 00:25:42;;;;;;;42.08;22.75;;;;;;;7.26;81.33;101950.81;5022421;28;20041;-64
2021/10/17 00:28:07;;;;;;;45.50;22.98;;;;;;;7.25;81.24;101949.06;5022663;28;20422;-65
2021/10/17 00:30:33;;;;;;;47.22;23.70;;;;;;;7.26;81.86;101945.56;5020235;28;20030;-68
2021/10/17 00:32:58;;;;;;;43.85;24.05;;;;;;;7.35;80.59;101950.25;5023259;28;20093;-65
2021/10/17 00:35:24;;;;;;;41.20;23.00;;;;;;;7.42;81.80;101947.00;5011696;28;20385;-68
2021/10/17 00:37:49;;;;;;;41.80;23.60;;;;;;;7.45;82.20;101948.84;5023178;28;20083;-66
2021/10/17 00:40:18;;;;;;;47.95;24.27;;;;;;;7.45;83.48;101952.34;5021473;28;20053;-67
2021/10/17 00:42:46;;;;;;;42.25;23.83;;;;;;;7.44;81.62;101954.94;5021983;28;20034;-65
2021/10/17 00:45:15;;;;;;;43.50;23.52;;;;;;;7.42;82.19;101947.00;5021531;28;20068;-67
2021/10/17 00:47:40;;;;;;;44.22;22.48;;;;;;;7.35;79.91;101944.09;5021967;28;20025;-66
2021/10/17 00:50:08;;;;;;;47.80;23.95;;;;;;;7.21;81.71;101946.22;5022535;28;20412;-65
2021/10/17 00:52:37;;;;;;;42.50;23.58;;;;;;;7.12;81.84;101946.78;5011640;28;20034;-65
2021/10/17 00:55:05;;;;;;;43.22;23.90;;;;;;;7.04;83.91;101940.38;4973852;28;1105642;-69
2021/10/17 00:57:32;;;;;;;48.95;25.20;;;;;;;6.95;84.72;101944.44;5012871;28;20045;-67
2021/10/17 00:59:57;;;;;;;42.78;22.83;;;;;;;6.96;83.49;101938.38;5012846;28;20018;-66
2021/10/17 01:02:22;;;;;;;42.63;23.77;;;;;;;6.98;84.01;101944.56;5024094;28;20032;-67
2021/10/17 01:04:48;;;;;;;42.97;23.52;;;;;;;7.08;84.33;101939.66;5021270;28;20026;-68
2021/10/17 01:07:13;;;;;;;44.08;24.08;;;;;;;7.07;84.61;101940.50;5012403;28;20026;-66
2021/10/17 01:09:39;;;;;;;44.00;23.13;;;;;;;7.18;84.76;101941.78;5012651;28;20025;-69
2021/10/17 01:12:05;;;;;;;46.33;23.10;;;;;;;7.18;85.53;101946.13;5012617;28;20033;-67
2021/10/17 01:14:31;;;;;;;41.75;23.42;;;;;;;7.14;85.77;101937.25;5012754;28;20034;-68
2021/10/17 01:16:56;;;;;;;47.22;24.20;;;;;;;7.14;84.90;101930.22;5012530;28;20072;-67
2021/10/17 01:19:22;;;;;;;44.97;24.75;;;;;;;7.13;84.74;101925.81;5023821;28;20431;-68
2021/10/17 01:21:48;;;;;;;49.22;25.23;;;;;;;7.05;84.32;101926.38;5021518;28;20058;-67
2021/10/17 01:24:15;;;;;;;43.10;23.73;;;;;;;7.03;84.08;101930.69;5011471;28;20152;-67
2021/10/17 01:26:42;;;;;;;42.70;23.23;;;;;;;6.98;85.01;101931.41;5012468;28;20029;-68
2021/10/17 01:29:08;;;;;;;39.38;21.52;;;;;;;6.97;83.59;101927.03;5012256;28;20018;-67
2021/10/17 01:31:38;;;;;;;44.03;23.83;;;;;;;6.97;85.89;101924.41;5012435;28;20022;-68
2021/10/17 01:34:05;;;;;;;49.20;24.38;;;;;;;7.01;86.27;101917.50;5012500;28;20034;-68
2021/10/17 01:36:32;;;;;;;42.05;23.08;;;;;;;6.96;87.61;101919.97;5012253;28;20041;-66
2021/10/17 01:38:57;;;;;;;44.78;24.42;;;;;;;6.90;88.56;101914.50;5020587;28;20109;-66
2021/10/17 01:41:23;;;;;;;43.53;23.30;;;;;;;6.86;87.76;101919.56;5012175;28;20113;-68
2021/10/17 01:43:48;;;;;;;45.45;24.92;;;;;;;6.81;89.04;101916.75;5025475;28;20358;-68
2021/10/17 01:46:14;;;;;;;44.10;23.30;;;;;;;6.85;88.91;101918.66;5025408;28;20034;-64
2021/10/17 01:48:39;;;;;;;42.42;23.38;;;;;;;6.80;89.20;101917.59;5015521;28;20048;-66
2021/10/17 01:51:05;;;;;;;43.42;23.42;;;;;;;6.78;88.09;101914.03;5024615;28;20037;-63
2021/10/17 01:53:30;;;;;;;43.00;23.95;;;;;;;6.76;88.37;101905.19;5026898;28;20017;-65
2021/10/17 01:55:59;;;;;;;45.75;23.77;;;;;;;6.69;88.23;101901.44;5022971;28;20136;-66
2021/10/17 01:58:25;;;;;;;49.67;24.95;;;;;;;6.58;89.19;101902.75;5020222;28;20042;-64
2021/10/17 02:00:52;;;;;;;45.03;23.83;;;;;;;6.45;89.51;101911.91;5026688;28;20365;-66
2021/10/17 02:03:17;;;;;;;44.67;23.42;;;;;;;6.48;88.80;101905.88;5024388;28;20065;-68
2021/10/17 02:05:42;;;;;;;44.22;24.20;;;;;;;6.38;90.52;101912.53;5025270;28;20076;-67
2021/10/17 02:08:08;;;;;;;46.75;24.35;;;;;;;6.37;91.28;101905.50;5025628;28;20083;-65
2021/10/17 02:10:33;;;;;;;41.78;22.60;;;;;;;6.30;91.59;101906.09;5015129;28;20460;-64
2021/10/17 02:12:59;;;;;;;42.92;22.48;;;;;;;6.22;92.37;101908.44;5023476;28;20461;-65
2021/10/17 02:15:24;;;;;;;43.55;22.83;;;;;;;6.20;93.00;101900.47;5022065;28;20053;-67
2021/10/17 02:17:50;;;;;;;45.15;23.25;;;;;;;6.13;94.07;101901.09;5026010;28;20056;-67
2021/10/17 02:20:15;;;;;;;44.75;22.95;;;;;;;6.17;94.42;101907.34;5024522;28;20091;-66
2021/10/17 02:22:41;;;;;;;40.78;23.05;;;;;;;6.14;95.15;101907.22;5024770;28;20030;-68
2021/10/17 02:25:07;;;;;;;42.78;22.75;;;;;;;6.12;95.41;101904.53;5025849;28;20022;-66
2021/10/17 02:27:32;;;;;;;48.15;23.83;;;;;;;6.13;94.73;101901.09;5023729;28;20026;-64
2021/10/17 02:29:58;;;;;;;44.47;23.67;;;;;;;6.08;94.82;101897.38;5026439;28;20361;-65
2021/10/17 02:32:23;;;;;;;45.20;24.02;;;;;;;6.06;95.23;101905.19;5023087;28;20050;-65
2021/10/17 02:34:49;;;;;;;43.70;24.63;;;;;;;6.07;95.35;101893.84;5014830;28;20488;-66
2021/10/17 02:37:14;;;;;;;44.17;24.23;;;;;;;5.96;95.92;101900.38;5014505;28;20025;-67
2021/10/17 02:39:40;;;;;;;51.22;26.17;;;;;;;5.97;96.89;101896.94;5014724;28;20033;-66
2021/10/17 02:42:05;;;;;;;48.83;26.75;;;;;;;5.93;97.51;101888.00;5023428;28;20033;-66
2021/10/17 02:44:31;;;;;;;53.17;29.00;;;;;;;5.92;97.35;101885.31;5025904;28;20083;-66
2021/10/17 02:46:57;;;;;;;51.47;26.88;;;;;;;5.87;96.89;101897.38;5022836;28;20046;-66
2021/10/17 02:49:24;;;;;;;49.65;26.40;;;;;;;5.79;97.45;101889.19;5014379;28;20034;-66
2021/10/17 02:51:50;;;;;;;49.97;25.95;;;;;;;5.80;97.47;101890.97;5014296;28;20060;-66
2021/10/17 02:54:17;;;;;;;51.20;26.13;;;;;;;5.83;97.55;101896.34;5023922;28;20493;-67
2021/10/17 02:56:43;;;;;;;47.53;26.75;;;;;;;5.78;98.29;101900.50;5024036;28;20050;-67
2021/10/17 02:59:08;;;;;;;46.42;25.73;;;;;;;5.83;97.96;101900.72;5023651;28;20030;-67
2021/10/17 03:01:34;;;;;;;48.78;26.27;;;;;;;5.84;98.36;101903.41;5025455;28;20033;-66
2021/10/17 03:03:59;;;;;;;49.50;26.63;;;;;;;5.79;98.95;101898.78;5014128;28;20033;-67
2021/10/17 03:06:27;;;;;;;48.35;26.25;;;;;;;5.71;99.70;101907.25;5014410;28;20030;-68
2021/10/17 03:08:53;;;;;;;47.20;27.20;;;;;;;5.73;100.00;101899.44;5014455;28;20097;-69
2021/10/17 03:11:19;;;;;;;48.42;27.73;;;;;;;5.75;100.00;101893.41;5024978;28;20538;-66
2021/10/17 03:13:45;;;;;;;50.10;28.20;;;;;;;5.78;99.54;101886.50;5023497;28;20519;-69
2021/10/17 03:16:10;;;;;;;48.63;27.55;;;;;;;5.79;100.00;101889.19;5023705;28;20030;-68
2021/10/17 03:18:35;;;;;;;48.75;27.00;;;;;;;5.89;99.04;101882.56;5024764;28;20064;-69
2021/10/17 03:21:01;;;;;;;49.47;27.52;;;;;;;5.93;98.98;101888.00;5013806;28;20109;-68
2021/10/17 03:23:26;;;;;;;48.67;28.20;;;;;;;5.97;98.13;101878.56;5021969;28;20037;-68
2021/10/17 03:25:52;;;;;;;51.35;27.65;;;;;;;5.97;97.95;101877.63;5024845;28;20018;-66
2021/10/17 03:28:17;;;;;;;48.20;27.08;;;;;;;6.06;97.95;101873.69;5022999;28;20021;-66
2021/10/17 03:30:42;;;;;;;49.30;26.13;;;;;;;6.16;98.46;101880.19;5014123;28;20014;-63
2021/10/17 03:33:08;;;;;;;46.05;25.95;;;;;;;6.23;97.07;101883.94;5013700;28;20018;-63
2021/10/17 03:35:33;;;;;;;48.83;26.08;;;;;;;6.21;95.50;101883.88;5022231;28;20069;-63
2021/10/17 03:37:58;;;;;;;46.92;26.67;;;;;;;6.32;95.91;101886.00;5025283;28;20026;-64
2021/10/17 03:40:24;;;;;;;47.30;25.48;;;;;;;6.31;92.67;101894.75;5021777;28;20034;-63
2021/10/17 03:42:49;;;;;;;48.22;26.45;;;;;;;6.32;95.09;101891.25;5013504;28;20026;-63
2021/10/17 03:45:14;;;;;;;49.85;26.83;;;;;;;6.38;96.85;101884.53;5023450;28;20041;-63
2021/10/17 03:47:40;;;;;;;49.03;26.75;;;;;;;6.49;95.34;101887.56;5023677;28;20025;-63
2021/10/17 03:50:05;;;;;;;47.45;25.15;;;;;;;6.48;92.94;101884.88;5022370;28;20022;-64
2021/10/17 03:52:31;;;;;;;52.45;26.67;;;;;;;6.43;94.18;101895.22;5024726;28;20033;-64
2021/10/17 03:54:56;;;;;;;46.45;25.23;;;;;;;6.38;92.91;101887.16;5021159;28;20046;-64
2021/10/17 03:57:22;;;;;;;47.40;24.92;;;;;;;6.35;92.35;101891.38;5023465;28;20052;-63
2021/10/17 03:59:47;;;;;;;47.88;26.38;;;;;;;6.36;96.21;101890.56;5022618;28;20383;-63
2021/10/17 04:02:12;;;;;;;48.38;25.45;;;;;;;6.39;93.33;101882.78;5013087;28;20068;-63
2021/10/17 04:04:37;;;;;;;46.50;23.80;;;;;;;6.38;92.69;101883.66;5013295;28;20549;-64
2021/10/17 04:07:04;;;;;;;45.20;24.30;;;;;;;6.42;90.78;101885.53;5013187;28;20033;-63
2021/10/17 04:09:30;;;;;;;46.20;23.92;;;;;;;6.41;91.02;101876.75;5013259;28;20036;-67
2021/10/17 04:11:55;;;;;;;43.92;23.65;;;;;;;6.43;89.50;101877.72;5013074;28;20124;-68
2021/10/17 04:14:20;;;;;;;44.53;23.52;;;;;;;6.47;90.10;101877.84;5013276;28;20378;-67
2021/10/17 04:16:46;;;;;;;46.30;24.27;;;;;;;6.50;89.64;101870.06;5023352;28;20036;-66
2021/10/17 04:19:11;;;;;;;42.30;22.55;;;;;;;6.44;88.41;101879.50;5023051;28;20039;-66
2021/10/17 04:21:36;;;;;;;41.97;21.30;;;;;;;6.43;87.49;101879.44;5013040;28;20030;-66
2021/10/17 04:24:02;;;;;;;42.42;22.95;;;;;;;6.41;86.92;101874.13;5021313;28;20040;-67
2021/10/17 04:26:27;;;;;;;43.58;22.40;;;;;;;6.43;87.39;101875.06;5024412;28;20030;-67
2021/10/17 04:28:52;;;;;;;44.05;22.98;;;;;;;6.44;86.90;101886.50;5021708;28;20033;-68
2021/10/17 04:31:18;;;;;;;44.17;23.27;;;;;;;6.42;87.57;101880.28;5022380;28;20030;-67
2021/10/17 04:33:43;;;;;;;42.53;22.80;;;;;;;6.39;87.07;101874.91;5022689;28;20030;-68
2021/10/17 04:36:10;;;;;;;42.30;23.00;;;;;;;6.43;87.70;101874.19;5012746;28;20377;-66
2021/10/17 04:38:35;;;;;;;44.90;24.42;;;;;;;6.46;89.01;101874.31;5021548;28;20026;-68
2021/10/17 04:41:01;;;;;;;44.97;23.83;;;;;;;6.46;89.32;101871.69;5024403;28;20175;-66
2021/10/17 04:43:27;;;;;;;44.90;24.17;;;;;;;6.48;88.31;101872.66;5017140;28;20429;-66
2021/10/17 04:45:52;;;;;;;49.58;24.95;;;;;;;6.49;89.02;101877.03;5024187;28;20132;-66
2021/10/17 04:48:18;;;;;;;48.60;25.02;;;;;;;6.50;88.27;101868.34;5021966;28;20461;-65
2021/10/17 04:50:43;;;;;;;44.72;25.10;;;;;;;6.52;88.34;101869.28;5012796;28;20485;-66
2021/10/17 04:53:09;;;;;;;48.67;25.98;;;;;;;6.53;87.83;101873.69;5012614;28;20109;-65
2021/10/17 04:55:34;;;;;;;46.28;26.08;;;;;;;6.60;89.61;101864.31;5020920;28;20069;-67
2021/10/17 04:58:02;;;;;;;45.17;25.83;;;;;;;6.61;89.81;101868.72;5024531;28;20025;-64
2021/10/17 05:00:28;;;;;;;46.65;25.98;;;;;;;6.63;89.58;101877.56;5017007;28;20523;-67
2021/10/17 05:02:53;;;;;;;49.22;25.95;;;;;;;6.62;89.31;101876.66;5023632;28;20034;-64
2021/10/17 05:05:19;;;;;;;46.97;25.65;;;;;;;6.66;89.67;101872.44;5022000;28;20024;-66
2021/10/17 05:07:44;;;;;;;50.70;25.50;;;;;;;6.66;89.54;101871.53;5022596;28;20029;-67
2021/10/17 05:10:09;;;;;;;45.92;25.50;;;;;;;6.66;90.00;101864.53;5023039;28;20028;-67
2021/10/17 05:12:35;;;;;;;47.83;24.55;;;;;;;6.68;89.78;101868.09;5021104;28;20406;-67
2021/10/17 05:15:00;;;;;;;47.67;24.67;;;;;;;6.67;90.22;101870.69;5023892;28;20456;-67
2021/10/17 05:17:25;;;;;;;49.03;25.63;;;;;;;6.63;90.99;101875.81;5021210;28;20109;-64
2021/10/17 05:19:51;;;;;;;46.25;24.92;;;;;;;6.62;90.72;101870.50;5027085;28;20111;-65
2021/10/17 05:22:16;;;;;;;43.85;24.00;;;;;;;6.67;91.31;101875.94;5025919;28;20392;-68
2021/10/17 05:24:41;;;;;;;43.92;23.10;;;;;;;6.67;91.44;101876.84;5016016;28;20034;-63
2021/10/17 05:27:06;;;;;;;45.58;25.02;;;;;;;6.66;91.63;101877.69;5016098;28;20036;-68
2021/10/17 05:29:32;;;;;;;46.50;24.55;;;;;;;6.62;91.40;101871.41;5024003;28;20018;-65
2021/10/17 05:31:57;;;;;;;47.38;24.10;;;;;;;6.65;90.84;101875.00;5026591;28;20377;-67
2021/10/17 05:34:22;;;;;;;44.58;24.08;;;;;;;6.60;90.46;101877.47;5024748;28;20057;-65
2021/10/17 05:36:48;;;;;;;45.42;25.38;;;;;;;6.65;90.63;101877.63;5026314;28;20022;-68
2021/10/17 05:39:13;;;;;;;45.30;24.10;;;;;;;6.63;91.50;101881.09;5025951;28;20437;-66
2021/10/17 05:41:38;;;;;;;44.88;24.17;;;;;;;6.64;91.75;101882.00;5015738;28;20022;-66
2021/10/17 05:44:04;;;;;;;48.47;25.27;;;;;;;6.65;91.42;101888.13;5023988;28;20026;-69
2021/10/17 05:46:30;;;;;;;46.92;24.42;;;;;;;6.66;92.38;101888.19;5027750;28;20080;-69
2021/10/17 05:48:55;;;;;;;45.40;25.00;;;;;;;6.64;94.21;101897.75;5024164;28;20021;-67
2021/10/17 05:51:20;;;;;;;48.08;24.38;;;;;;;6.61;92.43;101895.91;5015830;28;20372;-70
2021/10/17 05:53:45;;;;;;;48.67;25.10;;;;;;;6.62;91.44;101900.31;5015602;28;20029;-67
2021/10/17 05:56:11;;;;;;;46.83;25.48;;;;;;;6.62;91.08;101896.78;5015392;28;20129;-67
2021/10/17 05:58:36;;;;;;;48.30;25.20;;;;;;;6.61;91.17;101897.63;5024222;28;20028;-64
2021/10/17 06:01:02;;;;;;;60.78;25.67;;;;;;;6.56;92.15;101905.34;5027088;28;20435;-66
2021/10/17 06:03:27;;;;;;;44.97;24.48;;;;;;;6.56;90.44;101900.09;5015646;28;20073;-66
2021/10/17 06:05:59;;;;;;;47.55;24.70;;;;;;;6.55;91.59;101895.69;5015813;28;20041;-67
2021/10/17 06:08:25;;;;;;;48.72;25.27;;;;;;;6.58;92.30;101895.81;5015559;28;20030;-67
2021/10/17 06:10:50;;;;;;;47.20;24.65;;;;;;;6.56;90.93;101902.72;5015256;28;20542;-68
2021/10/17 06:13:15;;;;;;;48.95;25.10;;;;;;;6.55;90.95;101910.53;5025362;28;20022;-68
2021/10/17 06:15:40;;;;;;;45.50;24.23;;;;;;;6.57;90.65;101914.13;5025397;28;20033;-68
2021/10/17 06:18:06;;;;;;;46.92;25.38;;;;;;;6.61;90.37;101919.56;5023653;28;20049;-66
2021/10/17 06:20:31;;;;;;;45.55;24.50;;;;;;;6.63;89.65;101915.25;5026943;28;20472;-66
2021/10/17 06:22:57;;;;;;;43.42;24.05;;;;;;;6.63;89.49;101914.34;5023162;28;20477;-69
2021/10/17 06:25:22;;;;;;;47.78;24.90;;;;;;;6.70;90.41;101915.47;5018473;28;20084;-66
2021/10/17 06:27:48;;;;;;;49.00;25.52;;;;;;;6.72;90.56;101917.31;5021553;28;20030;-66
2021/10/17 06:30:13;;;;;;;47.63;26.02;;;;;;;6.76;91.80;101916.59;5021992;28;20032;-66
2021/10/17 06:32:38;;;;;;;43.90;24.88;;;;;;;6.75;91.69;101924.44;5017781;28;20022;-67
2021/10/17 06:35:04;;;;;;;47.67;25.50;;;;;;;6.82;92.05;101930.81;5024297;28;20456;-66
2021/10/17 06:37:29;;;;;;;44.67;26.08;;;;;;;6.89;93.33;101943.34;5018943;28;20072;-67
2021/10/17 06:39:55;;;;;;;48.97;25.58;;;;;;;6.89;93.61;101933.72;5024005;28;20017;-66
2021/10/17 06:42:20;;;;;;;50.38;25.77;;;;;;;6.92;93.93;101941.72;5016513;28;20026;-65
2021/10/17 06:44:45;;;;;;;42.67;24.75;;;;;;;7.00;93.83;101935.84;5019018;28;20670;-67
2021/10/17 06:47:11;;;;;;;45.20;25.60;;;;;;;6.95;94.51;101933.94;5021927;28;20472;-66
2021/10/17 06:49:37;;;;;;;46.67;26.08;;;;;;;7.01;95.21;101942.91;5017032;28;20026;-67
2021/10/17 06:52:03;;;;;;;43.90;25.23;;;;;;;6.98;94.49;101943.69;5022702;28;20056;-66
2021/10/17 06:54:28;;;;;;;45.55;25.38;;;;;;;7.03;92.89;101939.47;5015489;28;20065;-66
2021/10/17 06:56:53;;;;;;;47.28;25.52;;;;;;;7.06;93.46;101941.31;5019596;28;20049;-66
2021/10/17 06:59:19;;;;;;;45.00;25.00;;;;;;;7.12;93.06;101946.78;5020303;28;20495;-66
2021/10/17 07:01:44;;;;;;;50.22;25.90;;;;;;;7.16;92.04;101935.56;5019285;28;20025;-66
2021/10/17 07:04:10;;;;;;;48.10;25.50;;;;;;;7.18;92.50;101927.72;5018979;28;20033;-65
2021/10/17 07:06:35;;;;;;;45.05;24.88;;;;;;;7.16;92.78;101927.66;5018830;28;20022;-64
2021/10/17 07:09:00;;;;;;;45.47;24.55;;;;;;;7.17;92.82;101929.47;5022563;28;20112;-65
2021/10/17 07:11:26;;;;;;;47.70;24.50;;;;;;;7.21;93.21;101934.00;5023077;28;20469;-66
2021/10/17 07:13:51;;;;;;;45.72;24.92;;;;;;;7.29;91.44;101936.88;5018160;28;20026;-65
2021/10/17 07:16:16;;;;;;;44.95;24.33;;;;;;;7.37;91.51;101938.06;5016656;28;20071;-66
2021/10/17 07:18:42;;;;;;;46.70;25.75;;;;;;;7.47;90.99;101941.88;5021056;28;20037;-66
2021/10/17 07:21:07;;;;;;;45.20;23.65;;;;;;;7.58;90.22;101937.00;5019061;28;20018;-66
2021/10/17 07:23:33;;;;;;;43.50;24.27;;;;;;;7.64;89.79;101939.84;5022060;28;20032;-65
2021/10/17 07:25:58;;;;;;;43.72;24.48;;;;;;;7.73;88.33;101931.34;5018274;28;20054;-66
2021/10/17 07:28:24;;;;;;;50.13;25.05;;;;;;;7.82;88.21;101936.91;5020412;28;20109;-66
2021/10/17 07:30:49;;;;;;;48.40;24.35;;;;;;;7.88;86.91;101937.13;5020308;28;20378;-65
2021/10/17 07:33:15;;;;;;;44.85;24.08;;;;;;;7.99;85.86;101941.03;5018375;28;20077;-66
2021/10/17 07:35:41;;;;;;;45.28;23.73;;;;;;;8.15;83.81;101952.91;5018566;28;20018;-66
2021/10/17 07:38:06;;;;;;;41.35;22.85;;;;;;;8.34;83.77;101964.03;5019083;28;20026;-65
2021/10/17 07:40:32;;;;;;;46.58;24.27;;;;;;;8.61;82.54;101965.78;5015275;28;20056;-67
2021/10/17 07:42:57;;;;;;;44.65;22.85;;;;;;;8.72;79.01;101969.63;5015875;28;20052;-66
2021/10/17 07:45:22;;;;;;;43.63;22.55;;;;;;;8.84;79.98;101964.72;5019969;28;20026;-67
2021/10/17 07:47:48;;;;;;;46.42;23.30;;;;;;;8.92;77.82;101975.50;5018997;28;20502;-64
2021/10/17 07:50:13;;;;;;;44.17;23.05;;;;;;;8.99;79.10;101977.47;5017654;28;20030;-64
2021/10/17 07:52:38;;;;;;;44.47;22.65;;;;;;;8.92;77.33;101967.56;5019405;28;20034;-64
2021/10/17 07:55:07;;;;;;;45.03;22.45;;;;;;;8.96;78.58;101966.81;5016751;28;20044;-65
2021/10/17 07:57:50;;;;;;;42.08;22.55;;;;;;;9.24;78.48;101971.13;5019501;28;20056;-64
2021/10/17 08:00:20;;;;;;;45.35;22.20;;;;;;;9.31;77.31;101971.31;5018323;28;20109;-64
2021/10/17 08:02:45;;;;;;;43.38;23.20;;;;;;;9.41;77.41;101970.72;5017738;28;20029;-65
2021/10/17 08:05:11;;;;;;;43.85;22.50;;;;;;;9.48;76.02;101977.94;5018434;28;20022;-65
2021/10/17 08:07:36;;;;;;;42.30;21.48;;;;;;;9.56;74.38;101972.84;5019064;28;20370;-65
2021/10/17 08:10:02;;;;;;;43.92;22.02;;;;;;;9.42;75.52;101973.38;5019945;28;20017;-65
2021/10/17 08:12:27;;;;;;;42.78;22.15;;;;;;;9.49;76.10;101969.16;5016773;28;20065;-65
2021/10/17 08:14:52;;;;;;;40.00;21.80;;;;;;;9.53;75.98;101965.75;5018267;28;20151;-65
2021/10/17 08:17:18;;;;;;;43.28;22.13;;;;;;;9.68;75.02;101965.25;5017437;28;20037;-67
2021/10/17 08:19:46;;;;;;;43.25;21.90;;;;;;;9.69;73.79;101972.31;5019436;28;20029;-67
2021/10/17 08:22:11;;;;;;;39.60;21.45;;;;;;;9.68;74.43;101969.66;5019432;28;20109;-68
2021/10/17 08:24:36;;;;;;;41.97;21.50;;;;;;;9.76;73.56;101971.63;5019572;28;20128;-66
2021/10/17 08:27:02;;;;;;;41.67;21.20;;;;;;;9.83;74.22;101970.03;5020411;28;20088;-66
2021/10/17 08:29:27;;;;;;;41.42;21.45;;;;;;;9.86;74.25;101971.84;5018132;28;20022;-65
2021/10/17 08:31:52;;;;;;;41.40;22.05;;;;;;;9.93;73.10;101976.44;5020795;28;20040;-64
2021/10/17 08:34:18;;;;;;;41.90;21.73;;;;;;;9.97;73.26;101975.66;5023752;28;20017;-65
2021/10/17 08:36:43;;;;;;;41.08;20.85;;;;;;;9.96;73.64;101976.53;5020403;28;20032;-65
2021/10/17 08:39:09;;;;;;;43.40;21.58;;;;;;;9.97;73.35;101977.41;5019566;28;20032;-65
2021/10/17 08:41:34;;;;;;;38.92;21.10;;;;;;;10.00;72.11;101973.09;5017574;28;20025;-65
2021/10/17 08:44:00;;;;;;;42.47;21.30;;;;;;;10.02;74.23;101971.41;5018405;28;20033;-66
2021/10/17 08:46:27;;;;;;;40.95;20.95;;;;;;;10.09;72.78;101973.34;5018329;28;20026;-65
2021/10/17 08:48:55;;;;;;;42.38;21.63;;;;;;;10.21;72.57;101972.72;5018377;28;20477;-65
2021/10/17 08:51:23;;;;;;;39.70;20.27;;;;;;;10.33;72.97;101971.25;5018103;28;20033;-65
2021/10/17 08:53:48;;;;;;;43.83;21.73;;;;;;;10.38;70.68;101967.88;5019511;28;20416;-66
2021/10/17 08:56:14;;;;;;;39.05;20.73;;;;;;;10.48;71.21;101966.31;5021301;28;20075;-66
2021/10/17 08:58:40;;;;;;;40.78;20.88;;;;;;;10.45;72.12;101967.13;5021157;28;20112;-66
2021/10/17 09:01:10;;;;;;;40.67;20.70;;;;;;;10.58;68.95;101972.72;5026510;28;20026;-65
2021/10/17 09:03:35;;;;;;;38.90;20.15;;;;;;;10.53;68.13;101969.97;5025037;28;20034;-65
2021/10/17 09:06:21;;;;;;;41.53;21.40;;;;;;;10.54;70.12;101963.84;5025934;28;20044;-66
2021/10/17 09:08:46;;;;;;;37.78;19.70;;;;;;;10.68;70.77;101969.41;5025055;28;20113;-63
2021/10/17 09:11:13;;;;;;;39.40;19.80;;;;;;;10.86;67.92;101968.91;5025332;28;20104;-66
2021/10/17 09:14:03;;;;;;;38.28;19.27;;;;;;;11.03;67.94;101974.56;5024156;28;20022;-64
2021/10/17 09:16:29;;;;;;;38.38;19.90;;;;;;;10.99;68.21;101973.63;5025330;28;20033;-65
2021/10/17 09:19:14;;;;;;;40.00;19.73;;;;;;;11.20;68.22;101972.25;5025708;28;20096;-65
2021/10/17 09:21:53;;;;;;;39.65;19.25;;;;;;;11.38;66.21;101973.47;5026377;28;20033;-64
2021/10/17 09:24:28;;;;;;;39.85;19.45;;;;;;;11.41;66.67;101966.47;5023203;28;20030;-65
2021/10/17 09:27:13;;;;;;;37.92;18.80;;;;;;;11.56;65.30;101967.63;5024791;28;20036;-63
2021/10/17 09:29:46;;;;;;;38.60;18.80;;;;;;;11.41;64.82;101971.75;5018656;28;21647;-63
2021/10/17 09:32:14;;;;;;;;;;;;;;;11.60;66.56;101974.75;5024503;28;20523;-63
2021/10/17 09:34:40;;;;;;;37.80;20.13;;;;;;;11.51;66.07;101973.72;5018816;28;19952;-63
2021/10/17 09:37:07;;;;;;;36.40;19.00;;;;;;;11.47;65.04;101973.63;5020307;28;20026;-63
2021/10/17 09:39:36;;;;;;;38.90;19.48;;;;;;;11.43;65.17;101962.13;5024452;28;20445;-63
2021/10/17 09:42:01;;;;;;;35.78;18.48;;;;;;;11.49;64.94;101975.47;5021603;28;20026;-64
2021/10/17 09:44:56;;;;;;;36.05;18.55;;;;;;;11.67;64.12;101969.59;5026917;28;20044;-64
2021/10/17 09:47:36;;;;;;;38.08;19.52;;;;;;;11.71;63.38;101969.63;5016013;28;20046;-65
2021/10/17 09:50:12;;;;;;;37.00;18.58;;;;;;;11.65;63.41;101965.16;5013638;28;20041;-64
2021/10/17 09:52:37;;;;;;;38.42;18.73;;;;;;;11.74;63.51;101965.31;5013058;28;20505;-64
2021/10/17 09:55:08;;;;;;;36.58;18.40;;;;;;;11.93;63.28;101968.28;5021871;28;20069;-64
2021/10/17 09:57:35;;;;;;;40.55;18.50;;;;;;;12.08;62.63;101960.59;5023710;28;20033;-64
2021/10/17 10:00:02;;;;;;;37.33;18.73;;;;;;;11.99;64.25;101969.28;5021453;28;20030;-64
2021/10/17 10:02:28;;;;;;;36.75;18.50;;;;;;;12.10;62.39;101965.91;5024338;28;20029;-63
2021/10/17 10:04:54;;;;;;;35.92;18.08;;;;;;;12.17;63.38;101962.50;5012783;28;20038;-65
2021/10/17 10:07:26;;;;;;;37.28;18.45;;;;;;;12.28;61.56;101975.94;5013070;28;20473;-63
2021/10/17 10:09:54;;;;;;;36.87;18.43;;;;;;;12.28;62.85;101975.94;5024484;28;20120;-64
2021/10/17 10:12:23;;;;;;;35.97;17.00;;;;;;;12.25;62.33;101973.22;5021739;28;20295;-64
2021/10/17 10:14:50;;;;;;;35.97;17.63;;;;;;;12.21;62.77;101975.81;5012961;28;20033;-64
2021/10/17 10:17:17;;;;;;;36.65;18.38;;;;;;;12.28;62.18;101968.84;5023423;28;20038;-64
2021/10/17 10:19:44;;;;;;;36.00;17.58;;;;;;;12.40;61.97;101969.91;5022633;28;20033;-64
2021/10/17 10:22:09;;;;;;;37.22;17.40;;;;;;;12.35;63.07;101977.81;5012859;28;20519;-64
2021/10/17 10:24:35;;;;;;;33.45;16.70;;;;;;;12.36;62.15;101974.25;5024153;28;20050;-64
2021/10/17 10:27:02;;;;;;;37.55;18.42;;;;;;;12.44;62.98;101977.94;5026219;28;20527;-63
2021/10/17 10:29:32;;;;;;;33.38;16.83;;;;;;;12.49;61.02;101986.81;5015101;28;20056;-64
2021/10/17 10:32:02;;;;;;;32.38;16.83;;;;;;;12.47;61.40;101983.28;5014826;28;20026;-64
2021/10/17 10:34:36;;;;;;;36.53;17.60;;;;;;;12.67;62.71;101980.03;5019756;28;20469;-64
2021/10/17 10:37:16;;;;;;;37.75;17.65;;;;;;;12.97;62.57;101974.19;5025802;28;20031;-64
2021/10/17 10:40:00;;;;;;;38.70;17.73;;;;;;;12.98;60.90;101976.00;5024914;28;20030;-63
2021/10/17 10:42:47;;;;;;;34.33;16.30;;;;;;;13.19;60.28;101970.06;5018920;28;20125;-63
2021/10/17 10:45:33;;;;;;;34.60;15.27;;;;;;;13.20;59.54;101969.16;5023460;28;20416;-63
2021/10/17 10:48:13;;;;;;;34.97;16.75;;;;;;;13.41;60.45;101967.66;5019807;28;20488;-63
2021/10/17 10:50:47;;;;;;;32.53;16.42;;;;;;;13.78;59.95;101971.56;5024416;28;20071;-64
2021/10/17 10:53:49;;;;;;;32.90;15.88;;;;;;;13.90;57.57;101969.91;5024840;28;20025;-64
2021/10/17 10:56:50;;;;;;;33.78;16.15;;;;;;;14.05;57.68;101974.44;5023697;28;20406;-64
2021/10/17 10:59:17;;;;;;;35.40;15.80;;;;;;;14.16;58.50;101971.88;4991699;28;20121;-63
2021/10/17 11:01:59;;;;;;;32.40;15.45;;;;;;;13.87;56.90;101976.06;4992711;28;20042;-64
2021/10/17 11:04:41;;;;;;;32.08;15.73;;;;;;;13.70;57.38;101967.06;4992470;28;20097;-64
2021/10/17 11:07:33;;;;;;;33.10;15.55;;;;;;;13.57;59.38;101966.03;4992473;28;20034;-64
2021/10/17 11:10:21;;;;;;;32.78;14.98;;;;;;;13.57;59.27;101966.03;4989397;28;20026;-64
2021/10/17 11:13:01;;;;;;;34.38;15.88;;;;;;;13.39;58.93;101961.44;4992462;28;20038;-64
2021/10/17 11:15:32;;;;;;;32.72;15.77;;;;;;;13.32;59.60;101968.41;4988237;28;20052;-64